Time,TemperatureF,DewpointF,PressureIn,WindDirection,WindDirectionDegrees,WindSpeedMPH,WindSpeedGustMPH,Humidity,HourlyPrecipIn,Conditions,Clouds,dailyrainin,SoftwareType,DateUTC
2013-06-01 00:00:00,72.7,67.6,29.90,NW,309,0.0,0.0,84,0.00,,SKC,0.00,VWS V14.01,2013-06-01 04:00:00,
2013-06-01 01:00:00,72.7,67.6,29.90,NW,309,0.0,0.0,84,0.00,,SKC,0.00,VWS V14.01,2013-06-01 05:00:00,
2013-06-01 02:00:00,71.3,66.9,29.88,NW,309,0.0,0.0,86,0.00,,SKC,0.00,VWS V14.01,2013-06-01 06:00:00,
2013-06-01 03:00:00,71.3,66.9,29.88,NW,309,0.0,0.0,86,0.00,,SKC,0.00,VWS V14.01,2013-06-01 07:00:00,
2013-06-01 04:00:00,69.3,65.6,29.88,NW,309,0.0,0.0,88,0.00,,SKC,0.00,VWS V14.01,2013-06-01 08:00:00,
2013-06-01 05:00:00,69.3,65.6,29.88,NW,309,0.0,0.0,88,0.00,,SKC,0.00,VWS V14.01,2013-06-01 09:00:00,
2013-06-01 06:00:00,68.1,64.7,29.88,NW,309,0.0,0.0,89,0.00,,SKC,0.00,VWS V14.01,2013-06-01 10:00:00,
2013-06-01 07:00:00,68.1,64.7,29.88,NW,309,0.0,0.0,89,0.00,,SKC,0.00,VWS V14.01,2013-06-01 11:00:00,
2013-06-01 08:00:00,76.7,68.9,29.89,NW,309,0.0,2.0,77,0.00,,SKC,0.00,VWS V14.01,2013-06-01 12:00:00,
2013-06-01 09:00:00,76.7,68.9,29.89,NW,309,0.0,2.0,77,0.00,,SKC,0.00,VWS V14.01,2013-06-01 13:00:00,
2013-06-01 10:00:00,89.8,72.0,29.88,SE,126,0.0,4.0,56,0.00,,SKC,0.00,VWS V14.01,2013-06-01 14:00:00,
2013-06-01 11:00:00,89.8,72.0,29.88,SE,126,0.0,4.0,56,0.00,,SKC,0.00,VWS V14.01,2013-06-01 15:00:00,
2013-06-01 12:00:00,95.0,68.3,29.85,West,281,0.0,5.0,42,0.00,,SKC,0.00,VWS V14.01,2013-06-01 16:00:00,
2013-06-01 13:00:00,95.0,68.3,29.85,West,281,0.0,5.0,42,0.00,,SKC,0.00,VWS V14.01,2013-06-01 17:00:00,
2013-06-01 14:00:00,95.9,62.2,29.82,WSW,251,0.0,8.0,33,0.00,,SKC,0.00,VWS V14.01,2013-06-01 18:00:00,
2013-06-01 15:00:00,95.9,62.2,29.82,WSW,251,0.0,8.0,33,0.00,,SKC,0.00,VWS V14.01,2013-06-01 19:00:00,
2013-06-01 16:00:00,95.0,63.1,29.80,North,355,0.0,7.0,35,0.00,,SKC,0.00,VWS V14.01,2013-06-01 20:00:00,
2013-06-01 17:00:00,95.0,63.1,29.80,North,355,0.0,7.0,35,0.00,,SKC,0.00,VWS V14.01,2013-06-01 21:00:00,
2013-06-01 18:00:00,92.8,65.7,29.77,NE,46,0.0,7.0,41,0.00,,SKC,0.00,VWS V14.01,2013-06-01 22:00:00,
2013-06-01 19:00:00,92.8,65.7,29.77,NE,46,0.0,7.0,41,0.00,,SKC,0.00,VWS V14.01,2013-06-01 23:00:00,
2013-06-01 20:00:00,84.7,69.8,29.79,North,355,0.0,5.0,61,0.00,,SKC,0.00,VWS V14.01,2013-06-02 00:00:00,
2013-06-01 21:00:00,84.7,69.8,29.79,North,355,0.0,5.0,61,0.00,,SKC,0.00,VWS V14.01,2013-06-02 01:00:00,
2013-06-01 22:00:00,81.3,72.6,29.81,WSW,248,0.0,5.0,75,0.00,,SKC,0.00,VWS V14.01,2013-06-02 02:00:00,
2013-06-01 23:00:00,81.3,72.6,29.81,WSW,248,0.0,5.0,75,0.00,,SKC,0.00,VWS V14.01,2013-06-02 03:00:00,